createdAt,value
2022-12-08T12:53:00.134Z,2.4
2022-12-08T12:58:06.696Z,2.3
2022-12-08T13:03:12.517Z,2.4
2022-12-08T13:08:19.154Z,2.3
2022-12-08T13:13:25.686Z,2.3
2022-12-08T13:18:32.229Z,2.3
2022-12-08T13:23:38.849Z,2.3
2022-12-08T13:28:45.405Z,2.3
2022-12-08T13:33:51.958Z,2.3
2022-12-08T13:38:58.660Z,2.2
2022-12-08T13:44:05.128Z,2.1
2022-12-08T13:49:11.740Z,2.1
2022-12-08T13:54:18.247Z,2.1
2022-12-08T13:59:24.820Z,2.1
2022-12-08T14:04:31.452Z,2
2022-12-08T14:09:37.958Z,2
2022-12-08T14:14:44.533Z,2
2022-12-08T14:19:51.100Z,2
2022-12-08T14:24:57.733Z,2
2022-12-08T14:30:04.239Z,2
2022-12-08T14:35:10.833Z,2
2022-12-08T14:40:17.408Z,2
2022-12-08T14:45:23.992Z,2
2022-12-08T14:50:30.527Z,1.9
2022-12-08T14:55:37.175Z,1.9
2022-12-08T15:05:50.245Z,1.8
2022-12-08T15:10:56.813Z,1.8
2022-12-08T15:16:03.471Z,1.7
2022-12-08T15:21:09.964Z,1.7
2022-12-08T15:26:16.545Z,1.6
2022-12-08T15:31:23.113Z,1.6
2022-12-08T15:36:29.786Z,1.6
2022-12-08T15:41:36.255Z,1.6
2022-12-08T15:46:42.839Z,1.7
2022-12-08T15:51:49.410Z,1.7
2022-12-08T15:56:55.988Z,1.6
2022-12-08T16:02:02.552Z,1.5
2022-12-08T16:07:09.118Z,1.4
2022-12-08T16:12:15.811Z,1.4
2022-12-08T16:17:22.256Z,1.4
2022-12-08T16:22:28.843Z,1.3
2022-12-08T16:27:35.408Z,1.2
2022-12-08T16:32:41.989Z,1.2
2022-12-08T16:37:48.574Z,1.1
2022-12-08T16:42:55.203Z,1.1
2022-12-08T16:48:01.739Z,1.1
2022-12-08T16:53:08.348Z,1.1
2022-12-08T16:58:14.858Z,1
2022-12-08T17:03:21.547Z,1
2022-12-08T17:08:28.064Z,1
2022-12-08T17:13:34.622Z,1.1
2022-12-08T17:18:41.146Z,1
2022-12-08T17:23:47.819Z,1
2022-12-08T17:28:54.311Z,0.9
2022-12-08T17:34:01.014Z,0.8
2022-12-08T17:39:07.469Z,0.7
2022-12-08T17:44:14.019Z,0.7
2022-12-08T17:49:20.594Z,0.7
2022-12-08T17:54:27.261Z,0.6
2022-12-08T17:59:33.830Z,0.5
2022-12-08T18:04:40.415Z,0.4
2022-12-08T18:09:46.945Z,0.3
2022-12-08T18:14:53.514Z,0.2
2022-12-08T18:20:00.062Z,0.1
2022-12-08T18:25:06.618Z,0.1
2022-12-08T18:30:13.170Z,0.1
2022-12-08T18:35:19.747Z,0
2022-12-08T18:40:26.334Z,0.1
2022-12-08T18:45:32.910Z,0
2022-12-08T18:50:39.474Z,0
2022-12-08T18:55:46.051Z,-0.1
2022-12-08T19:00:52.634Z,-0.2
2022-12-08T19:05:59.219Z,-0.4
2022-12-08T19:11:05.791Z,-0.5
2022-12-08T19:16:12.369Z,-0.6
2022-12-08T19:21:18.960Z,-0.7
2022-12-08T19:31:32.067Z,-0.4
2022-12-08T19:36:38.672Z,-0.4
2022-12-08T19:41:45.308Z,-0.4
2022-12-08T19:46:51.799Z,-0.4
2022-12-08T20:02:11.569Z,-0.4
2022-12-08T20:07:18.097Z,-0.4
2022-12-08T20:12:24.004Z,-0.4
2022-12-08T20:17:29.863Z,-0.5
2022-12-08T20:22:36.396Z,-0.6
2022-12-08T20:27:42.969Z,-0.5
2022-12-08T20:32:49.554Z,-0.5
2022-12-08T20:37:56.120Z,-0.6
2022-12-08T20:43:02.694Z,-0.6
2022-12-08T20:48:09.278Z,-0.7
2022-12-08T20:53:15.855Z,-0.6
2022-12-08T20:58:22.438Z,-0.6
2022-12-08T21:03:29.041Z,-0.6
2022-12-08T21:08:35.615Z,-0.6
2022-12-08T21:13:41.540Z,-0.6
2022-12-08T21:18:47.308Z,-0.6
2022-12-08T21:23:53.865Z,-0.6
2022-12-08T21:29:00.436Z,-0.6
2022-12-08T21:34:07.034Z,-0.6
2022-12-08T21:39:13.594Z,-0.6
2022-12-08T21:44:20.173Z,-0.6
2022-12-08T21:49:26.827Z,-0.6
2022-12-08T21:54:33.528Z,-0.6
2022-12-08T21:59:39.935Z,-0.6
2022-12-08T22:09:53.050Z,-0.6
2022-12-08T22:14:59.647Z,-0.7
2022-12-08T22:20:06.193Z,-0.7
2022-12-08T22:25:12.802Z,-0.7
2022-12-08T22:30:18.667Z,-0.7
2022-12-08T22:35:25.201Z,-0.7
2022-12-08T22:40:31.763Z,-0.7
2022-12-08T22:45:38.348Z,-0.6
2022-12-08T22:50:44.938Z,-0.6
2022-12-08T22:55:51.485Z,-0.7
2022-12-08T23:00:58.061Z,-0.8
2022-12-08T23:06:04.651Z,-0.8
2022-12-08T23:11:11.222Z,-0.8
2022-12-08T23:16:17.797Z,-0.9
2022-12-08T23:21:24.407Z,-0.9
2022-12-08T23:26:30.936Z,-1
2022-12-08T23:31:37.666Z,-1
2022-12-08T23:36:43.420Z,-1.1
2022-12-08T23:41:49.935Z,-1.2
2022-12-08T23:46:56.505Z,-1.3
2022-12-08T23:52:03.087Z,-1.4
2022-12-08T23:57:09.666Z,-1.4
